createdAt,value
2018-07-04T15:53:07.119Z,5.00
2018-07-04T15:55:46.764Z,4.42
2018-07-04T15:58:26.465Z,4.58
2018-07-04T16:01:06.807Z,4.55
2018-07-04T16:03:46.445Z,4.35
2018-07-04T16:06:26.159Z,4.42
2018-07-04T16:09:06.178Z,4.53
2018-07-04T16:11:46.084Z,4.40
2018-07-04T16:14:25.728Z,4.10
2018-07-04T16:17:05.724Z,4.30
2018-07-04T16:19:45.726Z,4.47
2018-07-04T16:22:25.237Z,4.40
2018-07-04T16:25:04.712Z,3.87
2018-07-04T16:27:44.211Z,4.90
2018-07-04T16:30:23.873Z,4.33
2018-07-04T16:33:03.593Z,3.70
2018-07-04T16:35:43.303Z,3.40
2018-07-04T16:38:23.640Z,3.90
2018-07-04T16:41:03.485Z,3.60
2018-07-04T16:43:43.245Z,4.05
2018-07-04T16:46:22.841Z,4.45
2018-07-04T16:49:02.728Z,3.75
2018-07-04T16:51:42.381Z,3.60
2018-07-04T16:54:21.924Z,3.50
2018-07-04T16:57:01.691Z,3.80
2018-07-04T16:59:41.362Z,3.72
2018-07-04T17:02:20.998Z,3.30
2018-07-04T17:05:00.813Z,3.40
2018-07-04T17:07:40.440Z,3.42
2018-07-04T17:10:20.231Z,3.47
2018-07-04T17:12:59.952Z,3.60
2018-07-04T17:15:39.588Z,3.90
2018-07-04T17:18:20.175Z,3.65
2018-07-04T17:20:59.870Z,3.70
2018-07-04T17:23:33.641Z,4.08
2018-07-04T17:26:13.214Z,3.87
2018-07-04T17:28:54.010Z,3.60
2018-07-04T17:31:33.552Z,4.22
2018-07-04T17:34:13.300Z,4.00
2018-07-04T17:36:53.049Z,3.80
2018-07-04T17:39:32.702Z,3.65
2018-07-04T17:42:12.368Z,4.20
2018-07-04T17:44:52.125Z,3.47
2018-07-04T17:47:31.837Z,4.10
2018-07-04T17:50:11.496Z,4.50
2018-07-04T17:52:51.454Z,4.33
2018-07-04T17:55:31.166Z,3.90
2018-07-04T17:58:10.985Z,3.83
2018-07-04T18:00:50.664Z,3.92
2018-07-04T18:03:30.419Z,4.03
2018-07-04T18:06:10.114Z,3.92
2018-07-04T18:08:49.635Z,3.87
2018-07-04T18:11:29.243Z,4.40
2018-07-04T18:14:08.867Z,4.28
2018-07-04T18:16:48.509Z,4.10
2018-07-04T18:19:28.253Z,4.12
2018-07-04T18:22:07.947Z,4.33
2018-07-04T18:24:47.501Z,4.65
2018-07-04T18:27:27.152Z,4.53
2018-07-04T18:30:06.839Z,4.10
2018-07-04T18:32:46.411Z,3.87
2018-07-04T18:35:26.066Z,4.20
2018-07-04T18:38:05.656Z,3.77
2018-07-04T18:40:45.439Z,3.67
2018-07-04T18:43:25.181Z,3.20
2018-07-04T18:46:05.096Z,3.92
2018-07-04T18:48:44.747Z,3.45
2018-07-04T18:51:24.436Z,3.62
2018-07-04T18:54:04.161Z,3.30
2018-07-04T18:56:43.792Z,3.20
2018-07-04T18:59:23.627Z,2.85
2018-07-04T19:02:03.148Z,2.80
2018-07-04T19:04:42.868Z,3.17
2018-07-04T19:07:22.488Z,2.85
2018-07-04T19:10:02.254Z,3.12
2018-07-04T19:12:41.937Z,2.83
2018-07-04T19:15:21.522Z,2.98
2018-07-04T19:18:01.228Z,2.98
2018-07-04T19:20:41.062Z,2.65
2018-07-04T19:23:20.597Z,2.47
2018-07-04T19:26:00.464Z,3.00
2018-07-04T19:28:40.282Z,2.90
2018-07-04T19:31:19.957Z,2.67
2018-07-04T19:33:59.776Z,3.58
2018-07-04T19:36:39.252Z,2.40
2018-07-04T19:39:18.907Z,2.70
2018-07-04T19:41:58.560Z,2.87
2018-07-04T19:44:38.217Z,2.72
2018-07-04T19:47:17.859Z,2.22
2018-07-04T19:49:57.538Z,2.42
2018-07-04T19:52:37.416Z,2.83
2018-07-04T19:55:17.384Z,2.52
2018-07-04T19:57:57.325Z,2.80
2018-07-04T20:00:36.880Z,3.20
2018-07-04T20:03:16.497Z,3.08
2018-07-04T20:05:56.153Z,2.37
2018-07-04T20:08:35.825Z,2.37
2018-07-04T20:11:15.459Z,2.90
2018-07-04T20:13:55.275Z,2.22
2018-07-04T20:16:35.080Z,1.98
2018-07-04T20:19:14.910Z,2.42
2018-07-04T20:21:54.764Z,2.80
2018-07-04T20:24:34.737Z,2.50
2018-07-04T20:27:14.416Z,3.40
2018-07-04T20:29:54.330Z,2.55
2018-07-04T20:32:34.395Z,2.67
2018-07-04T20:35:14.208Z,2.60
2018-07-04T20:37:54.083Z,2.40
2018-07-04T20:40:33.695Z,2.50
2018-07-04T20:43:13.931Z,2.15
2018-07-04T20:45:53.939Z,2.72
2018-07-04T20:48:33.755Z,2.67
2018-07-04T20:51:13.553Z,2.25
2018-07-04T20:53:53.534Z,2.55
2018-07-04T20:56:33.249Z,2.12
2018-07-04T20:59:12.986Z,2.27
2018-07-04T21:01:53.960Z,2.47
2018-07-04T21:04:34.032Z,2.52
2018-07-04T21:07:13.832Z,2.52
2018-07-04T21:09:53.668Z,2.65
2018-07-04T21:12:33.453Z,3.25
2018-07-04T21:15:13.276Z,3.05
2018-07-04T21:17:53.790Z,3.12
2018-07-04T21:20:27.452Z,2.30
2018-07-04T21:23:07.254Z,2.35
2018-07-04T21:25:47.049Z,2.55
2018-07-04T21:28:26.596Z,2.47
2018-07-04T21:31:06.372Z,2.70
2018-07-04T21:33:46.192Z,2.80
2018-07-04T21:36:26.132Z,2.85
2018-07-04T21:39:06.175Z,2.90
2018-07-04T21:41:45.856Z,2.83
2018-07-04T21:44:25.667Z,2.80
2018-07-04T21:47:05.363Z,3.25
2018-07-04T21:49:45.245Z,2.55
2018-07-04T21:52:24.920Z,2.72
2018-07-04T21:55:05.368Z,2.30
2018-07-04T21:57:45.170Z,3.02
2018-07-04T22:00:25.055Z,2.70
2018-07-04T22:03:04.794Z,2.50
2018-07-04T22:05:44.480Z,2.70
2018-07-04T22:08:24.083Z,2.95
2018-07-04T22:11:03.857Z,3.08
2018-07-04T22:13:43.563Z,2.30
2018-07-04T22:16:23.344Z,2.98
2018-07-04T22:19:03.125Z,2.50
2018-07-04T22:21:42.836Z,2.80
2018-07-04T22:24:22.643Z,2.55
2018-07-04T22:27:02.408Z,2.90
2018-07-04T22:29:42.230Z,2.30
2018-07-04T22:32:21.968Z,2.37
2018-07-04T22:35:01.746Z,2.67
2018-07-04T22:37:41.445Z,2.87
2018-07-04T22:40:21.206Z,3.02
2018-07-04T22:43:00.922Z,2.30
2018-07-04T22:45:40.629Z,2.65
2018-07-04T22:48:20.347Z,2.58
2018-07-04T22:51:00.384Z,2.40
2018-07-04T22:53:40.239Z,2.83
2018-07-04T22:56:19.757Z,2.42
2018-07-04T22:58:59.455Z,2.42
2018-07-04T23:01:39.363Z,2.45
2018-07-04T23:04:19.023Z,2.95
2018-07-04T23:06:58.850Z,2.85
2018-07-04T23:09:38.415Z,2.25
2018-07-04T23:12:18.167Z,2.67
2018-07-04T23:14:57.872Z,2.22
2018-07-04T23:17:37.503Z,2.33
2018-07-04T23:20:17.473Z,2.30
2018-07-04T23:22:57.170Z,2.20
2018-07-04T23:25:36.946Z,2.35
2018-07-04T23:28:16.770Z,1.90
2018-07-04T23:30:56.575Z,2.52
2018-07-04T23:33:36.373Z,2.10
2018-07-04T23:36:09.898Z,2.35
2018-07-04T23:38:49.541Z,2.33
2018-07-04T23:41:29.178Z,2.33
2018-07-04T23:44:08.957Z,2.50
2018-07-04T23:46:48.458Z,2.45
2018-07-04T23:49:28.161Z,2.42
2018-07-04T23:52:07.783Z,2.25
2018-07-04T23:54:47.420Z,2.10
2018-07-04T23:57:27.165Z,2.45
